sensor_id;sensor_type;location;lat;lon;timestamp;temperature;humidity
33715;DHT22;20043;50.998;4.754;2023-12-14T00:02:10;10.80;99.90
33715;DHT22;20043;50.998;4.754;2023-12-14T00:04:42;10.80;99.90
33715;DHT22;20043;50.998;4.754;2023-12-14T00:07:08;10.70;99.90
33715;DHT22;20043;50.998;4.754;2023-12-14T00:09:33;10.50;99.90
33715;DHT22;20043;50.998;4.754;2023-12-14T00:11:59;10.50;99.90
33715;DHT22;20043;50.998;4.754;2023-12-14T00:14:24;10.50;99.90
33715;DHT22;20043;50.998;4.754;2023-12-14T00:16:50;10.60;99.90
33715;DHT22;20043;50.998;4.754;2023-12-14T00:19:16;10.70;99.90
33715;DHT22;20043;50.998;4.754;2023-12-14T00:21:41;10.80;99.90
33715;DHT22;20043;50.998;4.754;2023-12-14T00:24:07;10.90;99.90
33715;DHT22;20043;50.998;4.754;2023-12-14T00:26:32;10.90;99.90
33715;DHT22;20043;50.998;4.754;2023-12-14T00:28:58;11.00;99.90
33715;DHT22;20043;50.998;4.754;2023-12-14T00:31:24;10.90;99.90
33715;DHT22;20043;50.998;4.754;2023-12-14T00:33:49;10.90;99.90
33715;DHT22;20043;50.998;4.754;2023-12-14T00:36:18;11.00;99.90
33715;DHT22;20043;50.998;4.754;2023-12-14T00:38:44;11.00;99.90
33715;DHT22;20043;50.998;4.754;2023-12-14T00:41:10;11.00;99.90
33715;DHT22;20043;50.998;4.754;2023-12-14T00:43:36;11.00;99.90
33715;DHT22;20043;50.998;4.754;2023-12-14T00:46:03;10.80;99.90
33715;DHT22;20043;50.998;4.754;2023-12-14T00:48:29;10.90;99.90
33715;DHT22;20043;50.998;4.754;2023-12-14T00:50:55;10.80;99.90
33715;DHT22;20043;50.998;4.754;2023-12-14T00:53:20;10.90;99.90
33715;DHT22;20043;50.998;4.754;2023-12-14T00:55:46;11.00;99.90
33715;DHT22;20043;50.998;4.754;2023-12-14T00:58:12;10.90;99.90
33715;DHT22;20043;50.998;4.754;2023-12-14T01:00:41;10.80;99.90
33715;DHT22;20043;50.998;4.754;2023-12-14T01:03:07;10.60;99.90
33715;DHT22;20043;50.998;4.754;2023-12-14T01:05:32;10.60;99.90
33715;DHT22;20043;50.998;4.754;2023-12-14T01:07:58;10.50;99.90
33715;DHT22;20043;50.998;4.754;2023-12-14T01:10:23;10.60;99.90
33715;DHT22;20043;50.998;4.754;2023-12-14T01:12:49;10.40;99.90
33715;DHT22;20043;50.998;4.754;2023-12-14T01:15:15;10.20;99.90
33715;DHT22;20043;50.998;4.754;2023-12-14T01:17:41;9.90;99.90
33715;DHT22;20043;50.998;4.754;2023-12-14T01:20:08;9.70;99.90
33715;DHT22;20043;50.998;4.754;2023-12-14T01:22:34;9.50;99.90
33715;DHT22;20043;50.998;4.754;2023-12-14T01:25:00;9.40;99.90
33715;DHT22;20043;50.998;4.754;2023-12-14T01:27:26;9.30;99.90
33715;DHT22;20043;50.998;4.754;2023-12-14T01:29:51;9.20;99.90
33715;DHT22;20043;50.998;4.754;2023-12-14T01:32:17;9.20;99.90
33715;DHT22;20043;50.998;4.754;2023-12-14T01:34:43;9.10;99.90
33715;DHT22;20043;50.998;4.754;2023-12-14T01:37:08;9.20;99.90
33715;DHT22;20043;50.998;4.754;2023-12-14T01:39:34;9.20;99.90
33715;DHT22;20043;50.998;4.754;2023-12-14T01:41:59;9.00;99.90
33715;DHT22;20043;50.998;4.754;2023-12-14T01:44:25;8.90;99.90
33715;DHT22;20043;50.998;4.754;2023-12-14T01:46:51;8.90;99.90
33715;DHT22;20043;50.998;4.754;2023-12-14T01:49:16;8.90;99.90
33715;DHT22;20043;50.998;4.754;2023-12-14T01:51:42;8.90;99.90
33715;DHT22;20043;50.998;4.754;2023-12-14T01:54:07;8.90;99.90
33715;DHT22;20043;50.998;4.754;2023-12-14T01:56:33;8.90;99.90
33715;DHT22;20043;50.998;4.754;2023-12-14T01:58:59;8.90;99.90
33715;DHT22;20043;50.998;4.754;2023-12-14T02:01:45;8.80;99.90
33715;DHT22;20043;50.998;4.754;2023-12-14T02:04:12;8.80;99.90
33715;DHT22;20043;50.998;4.754;2023-12-14T02:06:39;8.70;99.90
33715;DHT22;20043;50.998;4.754;2023-12-14T02:09:05;8.80;99.90
33715;DHT22;20043;50.998;4.754;2023-12-14T02:11:30;8.90;99.90
33715;DHT22;20043;50.998;4.754;2023-12-14T02:13:56;9.00;99.90
33715;DHT22;20043;50.998;4.754;2023-12-14T02:16:22;9.00;99.90
33715;DHT22;20043;50.998;4.754;2023-12-14T02:18:48;9.10;99.90
33715;DHT22;20043;50.998;4.754;2023-12-14T02:21:13;9.10;99.90
33715;DHT22;20043;50.998;4.754;2023-12-14T02:23:44;9.10;99.90
33715;DHT22;20043;50.998;4.754;2023-12-14T02:26:09;9.10;99.90
33715;DHT22;20043;50.998;4.754;2023-12-14T02:28:35;9.20;99.90
33715;DHT22;20043;50.998;4.754;2023-12-14T02:31:01;9.40;99.90
33715;DHT22;20043;50.998;4.754;2023-12-14T02:33:26;9.30;99.90
33715;DHT22;20043;50.998;4.754;2023-12-14T02:35:52;9.20;99.90
33715;DHT22;20043;50.998;4.754;2023-12-14T02:38:17;9.20;99.90
33715;DHT22;20043;50.998;4.754;2023-12-14T02:40:43;9.00;99.90
33715;DHT22;20043;50.998;4.754;2023-12-14T02:43:09;8.80;99.90
33715;DHT22;20043;50.998;4.754;2023-12-14T02:45:34;8.70;99.90
33715;DHT22;20043;50.998;4.754;2023-12-14T02:48:00;8.40;99.90
33715;DHT22;20043;50.998;4.754;2023-12-14T02:50:25;8.20;99.90
33715;DHT22;20043;50.998;4.754;2023-12-14T02:52:51;8.30;99.90
33715;DHT22;20043;50.998;4.754;2023-12-14T02:55:16;8.30;99.90
33715;DHT22;20043;50.998;4.754;2023-12-14T02:57:42;8.40;99.90
33715;DHT22;20043;50.998;4.754;2023-12-14T03:00:08;8.50;99.90
33715;DHT22;20043;50.998;4.754;2023-12-14T03:02:34;8.60;99.90
33715;DHT22;20043;50.998;4.754;2023-12-14T03:05:00;8.60;99.90
33715;DHT22;20043;50.998;4.754;2023-12-14T03:07:25;8.70;99.90
33715;DHT22;20043;50.998;4.754;2023-12-14T03:09:51;8.70;99.90
33715;DHT22;20043;50.998;4.754;2023-12-14T03:12:16;8.60;99.90
33715;DHT22;20043;50.998;4.754;2023-12-14T03:14:42;8.60;99.90
33715;DHT22;20043;50.998;4.754;2023-12-14T03:17:08;8.50;99.90
33715;DHT22;20043;50.998;4.754;2023-12-14T03:19:41;8.50;99.90
33715;DHT22;20043;50.998;4.754;2023-12-14T03:22:07;8.60;99.90
33715;DHT22;20043;50.998;4.754;2023-12-14T03:24:33;8.40;99.90
33715;DHT22;20043;50.998;4.754;2023-12-14T03:26:58;8.30;99.90
33715;DHT22;20043;50.998;4.754;2023-12-14T03:29:24;8.40;99.90
33715;DHT22;20043;50.998;4.754;2023-12-14T03:31:50;8.20;99.90
33715;DHT22;20043;50.998;4.754;2023-12-14T03:34:16;8.20;99.90
33715;DHT22;20043;50.998;4.754;2023-12-14T03:36:42;8.10;99.90
33715;DHT22;20043;50.998;4.754;2023-12-14T03:39:08;8.20;99.90
33715;DHT22;20043;50.998;4.754;2023-12-14T03:41:33;8.20;99.90
33715;DHT22;20043;50.998;4.754;2023-12-14T03:43:59;7.90;99.90
33715;DHT22;20043;50.998;4.754;2023-12-14T03:46:25;7.80;99.90
33715;DHT22;20043;50.998;4.754;2023-12-14T03:48:50;7.60;99.90
33715;DHT22;20043;50.998;4.754;2023-12-14T03:51:19;7.50;99.90
33715;DHT22;20043;50.998;4.754;2023-12-14T03:53:45;7.60;99.90
33715;DHT22;20043;50.998;4.754;2023-12-14T03:56:10;7.60;99.90
33715;DHT22;20043;50.998;4.754;2023-12-14T03:58:36;7.80;99.90
33715;DHT22;20043;50.998;4.754;2023-12-14T04:01:02;7.90;99.90
33715;DHT22;20043;50.998;4.754;2023-12-14T04:03:27;7.80;99.90
33715;DHT22;20043;50.998;4.754;2023-12-14T04:05:53;7.80;99.90
33715;DHT22;20043;50.998;4.754;2023-12-14T04:08:19;7.90;99.90
33715;DHT22;20043;50.998;4.754;2023-12-14T04:10:44;7.90;99.90
33715;DHT22;20043;50.998;4.754;2023-12-14T04:13:10;7.90;99.90
33715;DHT22;20043;50.998;4.754;2023-12-14T04:15:36;7.90;99.90
33715;DHT22;20043;50.998;4.754;2023-12-14T04:18:01;7.90;99.90
33715;DHT22;20043;50.998;4.754;2023-12-14T04:20:27;7.80;99.90
33715;DHT22;20043;50.998;4.754;2023-12-14T04:22:52;7.70;99.90
33715;DHT22;20043;50.998;4.754;2023-12-14T04:25:18;7.80;99.90
33715;DHT22;20043;50.998;4.754;2023-12-14T04:27:44;8.00;99.90
33715;DHT22;20043;50.998;4.754;2023-12-14T04:30:10;7.80;99.90
33715;DHT22;20043;50.998;4.754;2023-12-14T04:32:37;7.90;99.90
33715;DHT22;20043;50.998;4.754;2023-12-14T04:35:04;7.90;99.90
33715;DHT22;20043;50.998;4.754;2023-12-14T04:37:30;7.70;99.90
33715;DHT22;20043;50.998;4.754;2023-12-14T04:39:59;7.80;99.90
33715;DHT22;20043;50.998;4.754;2023-12-14T04:42:25;7.70;99.90
33715;DHT22;20043;50.998;4.754;2023-12-14T04:44:50;7.80;99.90
33715;DHT22;20043;50.998;4.754;2023-12-14T04:47:16;7.80;99.90
33715;DHT22;20043;50.998;4.754;2023-12-14T04:49:41;7.80;99.90
33715;DHT22;20043;50.998;4.754;2023-12-14T04:52:07;7.70;99.90
33715;DHT22;20043;50.998;4.754;2023-12-14T04:54:34;7.90;99.90
33715;DHT22;20043;50.998;4.754;2023-12-14T04:57:03;8.10;99.90
33715;DHT22;20043;50.998;4.754;2023-12-14T04:59:29;8.30;99.90
33715;DHT22;20043;50.998;4.754;2023-12-14T05:01:54;8.40;99.90
33715;DHT22;20043;50.998;4.754;2023-12-14T05:04:20;8.40;99.90
33715;DHT22;20043;50.998;4.754;2023-12-14T05:06:46;8.40;99.90
33715;DHT22;20043;50.998;4.754;2023-12-14T05:09:11;8.20;99.90
33715;DHT22;20043;50.998;4.754;2023-12-14T05:11:39;8.10;99.90
33715;DHT22;20043;50.998;4.754;2023-12-14T05:14:05;8.20;99.90
33715;DHT22;20043;50.998;4.754;2023-12-14T05:16:31;8.50;99.90
33715;DHT22;20043;50.998;4.754;2023-12-14T05:18:56;8.50;99.90
33715;DHT22;20043;50.998;4.754;2023-12-14T05:21:23;8.40;99.90
33715;DHT22;20043;50.998;4.754;2023-12-14T05:23:48;8.50;99.90
33715;DHT22;20043;50.998;4.754;2023-12-14T05:26:14;8.40;99.90
33715;DHT22;20043;50.998;4.754;2023-12-14T05:28:40;8.40;99.90
33715;DHT22;20043;50.998;4.754;2023-12-14T05:31:06;8.30;99.90
33715;DHT22;20043;50.998;4.754;2023-12-14T05:33:31;8.10;99.90
33715;DHT22;20043;50.998;4.754;2023-12-14T05:35:59;8.00;99.90
33715;DHT22;20043;50.998;4.754;2023-12-14T05:38:25;8.00;99.90
33715;DHT22;20043;50.998;4.754;2023-12-14T05:40:50;8.00;99.90
33715;DHT22;20043;50.998;4.754;2023-12-14T05:43:16;8.20;99.90
33715;DHT22;20043;50.998;4.754;2023-12-14T05:45:42;8.10;99.90
33715;DHT22;20043;50.998;4.754;2023-12-14T05:48:07;8.00;99.90
33715;DHT22;20043;50.998;4.754;2023-12-14T05:50:33;8.10;99.90
33715;DHT22;20043;50.998;4.754;2023-12-14T05:52:59;8.20;99.90
33715;DHT22;20043;50.998;4.754;2023-12-14T05:55:24;8.10;99.90
33715;DHT22;20043;50.998;4.754;2023-12-14T05:57:50;8.10;99.90
33715;DHT22;20043;50.998;4.754;2023-12-14T06:00:18;8.20;99.90
33715;DHT22;20043;50.998;4.754;2023-12-14T06:02:43;8.10;99.90
33715;DHT22;20043;50.998;4.754;2023-12-14T06:05:11;8.10;99.90
33715;DHT22;20043;50.998;4.754;2023-12-14T06:07:36;8.20;99.90
33715;DHT22;20043;50.998;4.754;2023-12-14T06:10:03;8.10;99.90
33715;DHT22;20043;50.998;4.754;2023-12-14T06:12:29;7.90;99.90
33715;DHT22;20043;50.998;4.754;2023-12-14T06:14:54;7.80;99.90
33715;DHT22;20043;50.998;4.754;2023-12-14T06:17:20;7.90;99.90
33715;DHT22;20043;50.998;4.754;2023-12-14T06:19:46;8.00;99.90
33715;DHT22;20043;50.998;4.754;2023-12-14T06:22:11;8.00;99.90
33715;DHT22;20043;50.998;4.754;2023-12-14T06:24:37;8.20;99.90
33715;DHT22;20043;50.998;4.754;2023-12-14T06:27:02;8.10;99.90
33715;DHT22;20043;50.998;4.754;2023-12-14T06:29:29;8.00;99.90
33715;DHT22;20043;50.998;4.754;2023-12-14T06:31:54;7.90;99.90
33715;DHT22;20043;50.998;4.754;2023-12-14T06:34:20;8.10;99.90
33715;DHT22;20043;50.998;4.754;2023-12-14T06:36:45;8.00;99.90
33715;DHT22;20043;50.998;4.754;2023-12-14T06:39:11;8.10;99.90
33715;DHT22;20043;50.998;4.754;2023-12-14T06:41:37;8.10;99.90
33715;DHT22;20043;50.998;4.754;2023-12-14T06:44:03;8.20;99.90
33715;DHT22;20043;50.998;4.754;2023-12-14T06:46:29;8.20;99.90
33715;DHT22;20043;50.998;4.754;2023-12-14T06:48:55;8.20;99.90
33715;DHT22;20043;50.998;4.754;2023-12-14T06:51:21;8.20;99.90
33715;DHT22;20043;50.998;4.754;2023-12-14T06:53:47;8.30;99.90
33715;DHT22;20043;50.998;4.754;2023-12-14T06:56:13;8.30;99.90
33715;DHT22;20043;50.998;4.754;2023-12-14T06:58:43;8.20;99.90
33715;DHT22;20043;50.998;4.754;2023-12-14T07:01:13;8.20;99.90
33715;DHT22;20043;50.998;4.754;2023-12-14T07:03:40;8.10;99.90
33715;DHT22;20043;50.998;4.754;2023-12-14T07:06:07;8.10;99.90
33715;DHT22;20043;50.998;4.754;2023-12-14T07:08:33;8.20;99.90
33715;DHT22;20043;50.998;4.754;2023-12-14T07:10:58;8.40;99.90
33715;DHT22;20043;50.998;4.754;2023-12-14T07:13:24;8.40;99.90
33715;DHT22;20043;50.998;4.754;2023-12-14T07:15:56;8.50;99.90
33715;DHT22;20043;50.998;4.754;2023-12-14T07:18:22;8.60;99.90
33715;DHT22;20043;50.998;4.754;2023-12-14T07:20:48;8.40;99.90
33715;DHT22;20043;50.998;4.754;2023-12-14T07:23:13;8.30;99.90
33715;DHT22;20043;50.998;4.754;2023-12-14T07:25:39;8.30;99.90
33715;DHT22;20043;50.998;4.754;2023-12-14T07:28:04;8.20;99.90
33715;DHT22;20043;50.998;4.754;2023-12-14T07:30:30;8.40;99.90
33715;DHT22;20043;50.998;4.754;2023-12-14T07:32:56;8.50;99.90
33715;DHT22;20043;50.998;4.754;2023-12-14T07:35:21;8.50;99.90
33715;DHT22;20043;50.998;4.754;2023-12-14T07:37:48;8.50;99.90
33715;DHT22;20043;50.998;4.754;2023-12-14T07:40:14;8.50;99.90
33715;DHT22;20043;50.998;4.754;2023-12-14T07:42:39;8.60;99.90
33715;DHT22;20043;50.998;4.754;2023-12-14T07:45:05;8.60;99.90
33715;DHT22;20043;50.998;4.754;2023-12-14T07:47:31;8.50;99.90
33715;DHT22;20043;50.998;4.754;2023-12-14T07:49:57;8.50;99.90
33715;DHT22;20043;50.998;4.754;2023-12-14T07:52:22;8.60;99.90
33715;DHT22;20043;50.998;4.754;2023-12-14T07:54:48;8.50;99.90
33715;DHT22;20043;50.998;4.754;2023-12-14T07:57:14;8.50;99.90
33715;DHT22;20043;50.998;4.754;2023-12-14T07:59:39;8.60;99.90
33715;DHT22;20043;50.998;4.754;2023-12-14T08:02:05;8.70;99.90
33715;DHT22;20043;50.998;4.754;2023-12-14T08:04:31;8.60;99.90
33715;DHT22;20043;50.998;4.754;2023-12-14T08:06:58;8.60;99.90
33715;DHT22;20043;50.998;4.754;2023-12-14T08:09:24;8.60;99.90
33715;DHT22;20043;50.998;4.754;2023-12-14T08:11:50;8.60;99.90
33715;DHT22;20043;50.998;4.754;2023-12-14T08:14:17;8.50;99.90
33715;DHT22;20043;50.998;4.754;2023-12-14T08:16:43;8.50;99.90
33715;DHT22;20043;50.998;4.754;2023-12-14T08:19:09;8.50;99.90
33715;DHT22;20043;50.998;4.754;2023-12-14T08:21:34;8.40;99.90
33715;DHT22;20043;50.998;4.754;2023-12-14T08:24:00;8.30;99.90
33715;DHT22;20043;50.998;4.754;2023-12-14T08:26:25;8.30;99.90
33715;DHT22;20043;50.998;4.754;2023-12-14T08:28:51;8.20;99.90
33715;DHT22;20043;50.998;4.754;2023-12-14T08:31:16;8.20;99.90
33715;DHT22;20043;50.998;4.754;2023-12-14T08:33:42;8.20;99.90
33715;DHT22;20043;50.998;4.754;2023-12-14T08:36:08;8.30;99.90
33715;DHT22;20043;50.998;4.754;2023-12-14T08:38:34;8.40;99.90
33715;DHT22;20043;50.998;4.754;2023-12-14T08:40:59;8.50;99.90
33715;DHT22;20043;50.998;4.754;2023-12-14T08:43:25;8.50;99.90
33715;DHT22;20043;50.998;4.754;2023-12-14T08:45:51;8.70;99.90
33715;DHT22;20043;50.998;4.754;2023-12-14T08:48:18;8.80;99.90
33715;DHT22;20043;50.998;4.754;2023-12-14T08:50:51;8.90;99.90
33715;DHT22;20043;50.998;4.754;2023-12-14T08:53:18;8.90;99.90
33715;DHT22;20043;50.998;4.754;2023-12-14T08:55:44;9.00;99.90
33715;DHT22;20043;50.998;4.754;2023-12-14T08:58:09;9.00;99.90
33715;DHT22;20043;50.998;4.754;2023-12-14T09:00:35;8.90;99.90
33715;DHT22;20043;50.998;4.754;2023-12-14T09:03:00;8.90;99.90
33715;DHT22;20043;50.998;4.754;2023-12-14T09:05:26;8.90;99.90
33715;DHT22;20043;50.998;4.754;2023-12-14T09:07:52;9.10;99.90
33715;DHT22;20043;50.998;4.754;2023-12-14T09:10:21;9.10;99.90
33715;DHT22;20043;50.998;4.754;2023-12-14T09:12:47;9.10;99.90
33715;DHT22;20043;50.998;4.754;2023-12-14T09:15:13;9.00;99.90
33715;DHT22;20043;50.998;4.754;2023-12-14T09:17:41;9.00;99.90
33715;DHT22;20043;50.998;4.754;2023-12-14T09:20:08;9.10;99.90
33715;DHT22;20043;50.998;4.754;2023-12-14T09:22:34;9.10;99.90
33715;DHT22;20043;50.998;4.754;2023-12-14T09:25:00;9.00;99.90
33715;DHT22;20043;50.998;4.754;2023-12-14T09:27:26;9.00;99.90
33715;DHT22;20043;50.998;4.754;2023-12-14T09:29:52;8.80;99.90
33715;DHT22;20043;50.998;4.754;2023-12-14T09:32:17;8.80;99.90
33715;DHT22;20043;50.998;4.754;2023-12-14T09:34:43;8.70;99.90
33715;DHT22;20043;50.998;4.754;2023-12-14T09:37:09;8.70;99.90
33715;DHT22;20043;50.998;4.754;2023-12-14T09:39:34;8.60;99.90
33715;DHT22;20043;50.998;4.754;2023-12-14T09:42:02;8.60;99.90
33715;DHT22;20043;50.998;4.754;2023-12-14T09:44:32;8.60;99.90
33715;DHT22;20043;50.998;4.754;2023-12-14T09:47:01;8.70;99.90
33715;DHT22;20043;50.998;4.754;2023-12-14T09:49:30;8.80;99.90
33715;DHT22;20043;50.998;4.754;2023-12-14T09:51:56;8.80;99.90
33715;DHT22;20043;50.998;4.754;2023-12-14T09:54:23;8.90;99.90
33715;DHT22;20043;50.998;4.754;2023-12-14T09:56:49;8.90;99.90
33715;DHT22;20043;50.998;4.754;2023-12-14T09:59:15;9.00;99.90
33715;DHT22;20043;50.998;4.754;2023-12-14T10:01:42;9.00;99.90
33715;DHT22;20043;50.998;4.754;2023-12-14T10:04:11;9.10;99.90
33715;DHT22;20043;50.998;4.754;2023-12-14T10:06:38;9.20;99.90
33715;DHT22;20043;50.998;4.754;2023-12-14T10:09:04;9.20;99.90
33715;DHT22;20043;50.998;4.754;2023-12-14T10:11:35;9.20;99.90
33715;DHT22;20043;50.998;4.754;2023-12-14T10:14:01;9.20;99.90
33715;DHT22;20043;50.998;4.754;2023-12-14T10:16:31;9.30;99.90
33715;DHT22;20043;50.998;4.754;2023-12-14T10:18:57;9.00;99.90
33715;DHT22;20043;50.998;4.754;2023-12-14T10:21:27;9.00;99.90
33715;DHT22;20043;50.998;4.754;2023-12-14T10:23:57;9.10;99.90
33715;DHT22;20043;50.998;4.754;2023-12-14T10:26:24;9.00;99.90
33715;DHT22;20043;50.998;4.754;2023-12-14T10:28:54;9.00;99.90
33715;DHT22;20043;50.998;4.754;2023-12-14T10:31:20;9.00;99.90
33715;DHT22;20043;50.998;4.754;2023-12-14T10:33:47;8.90;99.90
33715;DHT22;20043;50.998;4.754;2023-12-14T10:36:19;9.00;99.90
33715;DHT22;20043;50.998;4.754;2023-12-14T10:38:48;9.00;99.90
33715;DHT22;20043;50.998;4.754;2023-12-14T10:41:17;8.80;99.90
33715;DHT22;20043;50.998;4.754;2023-12-14T10:43:44;8.70;99.90
33715;DHT22;20043;50.998;4.754;2023-12-14T10:46:10;8.80;99.90
33715;DHT22;20043;50.998;4.754;2023-12-14T10:48:36;8.90;99.90
33715;DHT22;20043;50.998;4.754;2023-12-14T10:51:04;9.10;99.90
33715;DHT22;20043;50.998;4.754;2023-12-14T10:53:32;9.40;99.90
33715;DHT22;20043;50.998;4.754;2023-12-14T10:56:00;9.50;99.90
33715;DHT22;20043;50.998;4.754;2023-12-14T10:58:26;9.50;99.90
33715;DHT22;20043;50.998;4.754;2023-12-14T11:01:01;9.30;99.90
33715;DHT22;20043;50.998;4.754;2023-12-14T11:03:42;9.20;99.90
33715;DHT22;20043;50.998;4.754;2023-12-14T11:08:56;8.90;99.90
33715;DHT22;20043;50.998;4.754;2023-12-14T11:11:22;9.00;99.90
33715;DHT22;20043;50.998;4.754;2023-12-14T11:13:51;8.90;99.90
33715;DHT22;20043;50.998;4.754;2023-12-14T11:16:20;9.00;99.90
33715;DHT22;20043;50.998;4.754;2023-12-14T11:24:34;9.30;99.90
33715;DHT22;20043;50.998;4.754;2023-12-14T11:27:04;9.40;99.90
33715;DHT22;20043;50.998;4.754;2023-12-14T11:29:30;9.60;99.90
33715;DHT22;20043;50.998;4.754;2023-12-14T11:31:55;9.70;99.90
33715;DHT22;20043;50.998;4.754;2023-12-14T11:34:24;9.80;99.90
33715;DHT22;20043;50.998;4.754;2023-12-14T11:36:50;9.80;99.90
33715;DHT22;20043;50.998;4.754;2023-12-14T11:39:16;9.50;99.90
33715;DHT22;20043;50.998;4.754;2023-12-14T11:41:41;9.40;99.90
33715;DHT22;20043;50.998;4.754;2023-12-14T11:44:07;9.40;99.90
33715;DHT22;20043;50.998;4.754;2023-12-14T11:46:33;9.60;99.90
33715;DHT22;20043;50.998;4.754;2023-12-14T11:48:58;9.80;99.90
33715;DHT22;20043;50.998;4.754;2023-12-14T11:51:24;10.00;99.90
33715;DHT22;20043;50.998;4.754;2023-12-14T11:53:51;10.10;99.90
33715;DHT22;20043;50.998;4.754;2023-12-14T11:56:18;9.90;99.90
33715;DHT22;20043;50.998;4.754;2023-12-14T11:58:44;9.90;99.90
33715;DHT22;20043;50.998;4.754;2023-12-14T12:01:17;10.00;99.90
33715;DHT22;20043;50.998;4.754;2023-12-14T12:03:44;10.00;99.90
33715;DHT22;20043;50.998;4.754;2023-12-14T12:06:23;10.10;99.90
33715;DHT22;20043;50.998;4.754;2023-12-14T12:08:50;10.10;99.90
33715;DHT22;20043;50.998;4.754;2023-12-14T12:11:20;10.20;99.90
33715;DHT22;20043;50.998;4.754;2023-12-14T12:13:57;10.10;99.90
33715;DHT22;20043;50.998;4.754;2023-12-14T12:16:23;10.10;99.90
33715;DHT22;20043;50.998;4.754;2023-12-14T12:18:49;10.10;99.90
33715;DHT22;20043;50.998;4.754;2023-12-14T12:21:16;10.00;99.90
33715;DHT22;20043;50.998;4.754;2023-12-14T12:23:41;9.80;99.90
33715;DHT22;20043;50.998;4.754;2023-12-14T12:26:08;9.90;99.90
33715;DHT22;20043;50.998;4.754;2023-12-14T12:28:33;9.90;99.90
33715;DHT22;20043;50.998;4.754;2023-12-14T12:30:59;9.80;99.90
33715;DHT22;20043;50.998;4.754;2023-12-14T12:33:25;9.70;99.90
33715;DHT22;20043;50.998;4.754;2023-12-14T12:35:51;9.70;99.90
33715;DHT22;20043;50.998;4.754;2023-12-14T12:38:17;9.70;99.90
33715;DHT22;20043;50.998;4.754;2023-12-14T12:40:44;9.80;99.90
33715;DHT22;20043;50.998;4.754;2023-12-14T12:43:10;9.80;99.90
33715;DHT22;20043;50.998;4.754;2023-12-14T12:45:36;9.80;99.90
33715;DHT22;20043;50.998;4.754;2023-12-14T12:48:03;9.80;99.90
33715;DHT22;20043;50.998;4.754;2023-12-14T12:50:29;9.80;99.90
33715;DHT22;20043;50.998;4.754;2023-12-14T12:52:55;9.90;99.90
33715;DHT22;20043;50.998;4.754;2023-12-14T12:55:21;9.80;99.90
33715;DHT22;20043;50.998;4.754;2023-12-14T12:57:48;9.60;99.90
33715;DHT22;20043;50.998;4.754;2023-12-14T13:00:14;9.60;99.90
33715;DHT22;20043;50.998;4.754;2023-12-14T13:02:41;9.50;99.90
33715;DHT22;20043;50.998;4.754;2023-12-14T13:05:08;9.50;99.90
33715;DHT22;20043;50.998;4.754;2023-12-14T13:07:34;9.50;99.90
33715;DHT22;20043;50.998;4.754;2023-12-14T13:10:00;9.50;99.90
33715;DHT22;20043;50.998;4.754;2023-12-14T13:12:26;9.40;99.90
33715;DHT22;20043;50.998;4.754;2023-12-14T13:14:51;9.30;99.90
33715;DHT22;20043;50.998;4.754;2023-12-14T13:17:25;9.30;99.90
33715;DHT22;20043;50.998;4.754;2023-12-14T13:19:52;9.30;99.90
33715;DHT22;20043;50.998;4.754;2023-12-14T13:22:17;9.40;99.90
33715;DHT22;20043;50.998;4.754;2023-12-14T13:24:50;9.40;99.90
33715;DHT22;20043;50.998;4.754;2023-12-14T13:27:16;9.50;99.90
33715;DHT22;20043;50.998;4.754;2023-12-14T13:29:41;9.50;99.90
33715;DHT22;20043;50.998;4.754;2023-12-14T13:32:07;9.50;99.90
33715;DHT22;20043;50.998;4.754;2023-12-14T13:34:32;9.50;99.90
33715;DHT22;20043;50.998;4.754;2023-12-14T13:36:59;9.50;99.90
33715;DHT22;20043;50.998;4.754;2023-12-14T13:39:26;9.50;99.90
33715;DHT22;20043;50.998;4.754;2023-12-14T13:41:52;9.60;99.90
33715;DHT22;20043;50.998;4.754;2023-12-14T13:44:18;9.60;99.90
33715;DHT22;20043;50.998;4.754;2023-12-14T13:46:43;9.60;99.90
33715;DHT22;20043;50.998;4.754;2023-12-14T13:49:09;9.60;99.90
33715;DHT22;20043;50.998;4.754;2023-12-14T13:51:35;9.50;99.90
33715;DHT22;20043;50.998;4.754;2023-12-14T13:54:01;9.30;99.90
33715;DHT22;20043;50.998;4.754;2023-12-14T13:56:26;9.30;99.90
33715;DHT22;20043;50.998;4.754;2023-12-14T13:58:53;9.30;99.90
33715;DHT22;20043;50.998;4.754;2023-12-14T14:01:18;9.40;99.90
33715;DHT22;20043;50.998;4.754;2023-12-14T14:03:44;9.50;99.90
33715;DHT22;20043;50.998;4.754;2023-12-14T14:06:12;9.50;99.90
33715;DHT22;20043;50.998;4.754;2023-12-14T14:08:38;9.50;99.90
33715;DHT22;20043;50.998;4.754;2023-12-14T14:11:03;9.40;99.90
33715;DHT22;20043;50.998;4.754;2023-12-14T14:13:29;9.50;99.90
33715;DHT22;20043;50.998;4.754;2023-12-14T14:15:56;9.40;99.90
33715;DHT22;20043;50.998;4.754;2023-12-14T14:18:21;9.50;99.90
33715;DHT22;20043;50.998;4.754;2023-12-14T14:20:54;9.50;99.90
33715;DHT22;20043;50.998;4.754;2023-12-14T14:23:20;9.50;99.90
33715;DHT22;20043;50.998;4.754;2023-12-14T14:25:45;9.50;99.90
33715;DHT22;20043;50.998;4.754;2023-12-14T14:28:11;9.60;99.90
33715;DHT22;20043;50.998;4.754;2023-12-14T14:30:37;9.60;99.90
33715;DHT22;20043;50.998;4.754;2023-12-14T14:33:02;9.70;99.90
33715;DHT22;20043;50.998;4.754;2023-12-14T14:35:28;9.60;99.90
33715;DHT22;20043;50.998;4.754;2023-12-14T14:37:54;9.60;99.90
33715;DHT22;20043;50.998;4.754;2023-12-14T14:40:20;9.60;99.90
33715;DHT22;20043;50.998;4.754;2023-12-14T14:42:45;9.70;99.90
33715;DHT22;20043;50.998;4.754;2023-12-14T14:45:11;9.70;99.90
33715;DHT22;20043;50.998;4.754;2023-12-14T14:47:37;9.80;99.90
33715;DHT22;20043;50.998;4.754;2023-12-14T14:50:05;9.80;99.90
33715;DHT22;20043;50.998;4.754;2023-12-14T14:52:33;9.80;99.90
33715;DHT22;20043;50.998;4.754;2023-12-14T14:54:59;9.70;99.90
33715;DHT22;20043;50.998;4.754;2023-12-14T14:57:25;9.50;99.90
33715;DHT22;20043;50.998;4.754;2023-12-14T14:59:51;9.50;99.90
33715;DHT22;20043;50.998;4.754;2023-12-14T15:02:17;9.50;99.90
33715;DHT22;20043;50.998;4.754;2023-12-14T15:04:43;9.40;99.90
33715;DHT22;20043;50.998;4.754;2023-12-14T15:07:08;9.50;99.90
33715;DHT22;20043;50.998;4.754;2023-12-14T15:09:34;9.50;99.90
33715;DHT22;20043;50.998;4.754;2023-12-14T15:12:00;9.70;99.90
33715;DHT22;20043;50.998;4.754;2023-12-14T15:14:25;9.60;99.90
33715;DHT22;20043;50.998;4.754;2023-12-14T15:16:53;9.70;99.90
33715;DHT22;20043;50.998;4.754;2023-12-14T15:19:19;9.80;99.90
33715;DHT22;20043;50.998;4.754;2023-12-14T15:21:45;9.70;99.90
33715;DHT22;20043;50.998;4.754;2023-12-14T15:24:10;9.80;99.90
33715;DHT22;20043;50.998;4.754;2023-12-14T15:26:36;9.90;99.90
33715;DHT22;20043;50.998;4.754;2023-12-14T15:29:02;10.10;99.90
33715;DHT22;20043;50.998;4.754;2023-12-14T15:31:29;10.10;99.90
33715;DHT22;20043;50.998;4.754;2023-12-14T15:33:54;10.00;99.90
33715;DHT22;20043;50.998;4.754;2023-12-14T15:36:20;10.10;99.90
33715;DHT22;20043;50.998;4.754;2023-12-14T15:38:46;10.10;99.90
33715;DHT22;20043;50.998;4.754;2023-12-14T15:41:12;10.00;99.90
33715;DHT22;20043;50.998;4.754;2023-12-14T15:43:38;10.00;99.90
33715;DHT22;20043;50.998;4.754;2023-12-14T15:46:04;10.00;99.90
33715;DHT22;20043;50.998;4.754;2023-12-14T15:48:29;10.00;99.90